Time;durP1;ratioP1;P1;durP2;ratioP2;P2;SDS_P1;SDS_P2;PMS_P1;PMS_P2;Temp;Humidity;BMP_temperature;BMP_pressure;BME280_temperature;BME280_humidity;BME280_pressure;Samples;Min_cycle;Max_cycle;Signal;HPM_P1;HPM_P2
2022/02/05 00:02:44;;;;;;;;;;;;;;;-6.57;96.86;98854.09;5012577;28;19936;-61
2022/02/05 00:05:14;;;;;;;;;;;;;;;-6.60;97.04;98854.13;5012361;28;19926;-61
2022/02/05 00:07:47;;;;;;;;;;;;;;;-6.60;97.24;98851.63;5029253;28;20020;-61
2022/02/05 00:10:33;;;;;;;;;;;;;;;-6.60;97.01;98846.56;5032322;28;19925;-61
2022/02/05 00:13:18;;;;;;;;;;;;;;;-6.57;97.10;98838.09;5032284;28;19925;-61
2022/02/05 00:15:54;;;;;;;;;;;;;;;-6.59;97.40;98837.25;5031897;28;20363;-61
2022/02/05 00:40:29;;;;;;;;;;;;;;;-6.55;96.87;98841.44;5015604;28;19933;-62
2022/02/05 00:42:56;;;;;;;;;;;;;;;-6.53;96.85;98833.78;5015488;28;19932;-61
2022/02/05 00:45:23;;;;;;;;;;;;;;;-6.57;96.96;98830.50;5015279;28;19933;-61
2022/02/05 00:47:49;;;;;;;;;;;;;;;-6.54;96.55;98838.03;5015520;28;20295;-61
2022/02/05 00:50:21;;;;;;;;;;;;;;;-6.52;96.97;98843.91;5015438;28;19936;-60
2022/02/05 00:52:59;;;;;;;;;;;;;;;-6.51;97.10;98832.06;5015646;28;19926;-61
2022/02/05 00:55:29;;;;;;;;;;;;;;;-6.50;96.63;98831.19;5015370;28;20016;-61
2022/02/05 00:58:02;;;;;;;;;;;;;;;-6.51;97.06;98834.59;5015249;28;19932;-61
2022/02/05 01:00:28;;;;;;;;;;;;;;;-6.51;96.34;98832.06;5015083;28;20023;-64
2022/02/05 01:02:55;;;;;;;;;;;;;;;-6.49;96.48;98825.31;5015232;28;19926;-65
2022/02/05 01:05:23;;;;;;;;;;;;;;;-6.50;96.82;98836.25;5014846;28;20376;-65
2022/02/05 01:07:50;;;;;;;;;;;;;;;-6.51;97.06;98820.25;5014946;28;20280;-64
2022/02/05 01:10:17;;;;;;;;;;;;;;;-6.50;96.72;98821.09;5014975;28;19929;-63
2022/02/05 01:12:49;;;;;;;;;;;;;;;-6.50;97.22;98821.91;5014963;28;20031;-66
2022/02/05 01:15:19;;;;;;;;;;;;;;;-6.50;96.54;98826.16;5014840;28;19930;-63
2022/02/05 01:17:51;;;;;;;;;;;;;;;-6.48;96.38;98819.38;5014786;28;19926;-65
2022/02/05 01:23:24;;;;;;;;;;;;;;;-6.47;96.46;98813.44;4973646;28;19930;-61
2022/02/05 01:25:59;;;;;;;;;;;;;;;-6.48;96.84;98821.91;4973902;28;19934;-62
2022/02/05 01:28:30;;;;;;;;;;;;;;;-6.48;96.95;98811.78;4995667;28;20016;-62
2022/02/05 01:30:58;;;;;;;;;;;;;;;-6.50;96.63;98801.66;5014593;28;19925;-63
2022/02/05 01:33:41;;;;;;;;;;;;;;;-6.47;96.70;98801.66;5014767;28;20322;-63
2022/02/05 01:36:25;;;;;;;;;;;;;;;-6.48;96.86;98799.94;5014416;28;19933;-67
2022/02/05 01:53:03;;;;;;;;;;;;;;;-6.46;97.58;98797.41;5012200;28;19937;-63
2022/02/05 01:55:38;;;;;;;;;;;;;;;-6.46;97.19;98799.94;5014251;28;19969;-65
2022/02/05 01:58:16;;;;;;;;;;;;;;;-6.47;97.34;98791.53;5013997;28;19926;-64
2022/02/05 02:06:17;;;;;;;;;;;;;;;-6.45;97.15;98783.88;5014014;28;19933;-64
2022/02/05 02:11:41;;;;;;;;;;;;;;;-6.43;97.53;98775.41;5013961;28;20399;-66
2022/02/05 02:14:33;;;;;;;;;;;;;;;-6.43;97.17;98780.47;5013733;28;19976;-66
2022/02/05 02:20:02;;;;;;;;;;;;;;;-6.43;96.93;98777.94;5013880;28;20411;-63
2022/02/05 02:22:36;;;;;;;;;;;;;;;-6.42;96.91;98766.97;5013805;28;19925;-66
2022/02/05 02:25:19;;;;;;;;;;;;;;;-6.41;96.91;98775.38;5013587;28;20299;-66
2022/02/05 02:27:53;;;;;;;;;;;;;;;-6.40;97.18;98770.28;5013838;28;19932;-66
2022/02/05 02:30:26;;;;;;;;;;;;;;;-6.40;97.29;98770.28;5013706;28;20036;-65
2022/02/05 02:33:01;;;;;;;;;;;;;;;-6.42;97.16;98769.50;5013508;28;19972;-66
2022/02/05 02:35:29;;;;;;;;;;;;;;;-6.43;97.24;98765.28;5013221;28;19944;-62
2022/02/05 02:38:02;;;;;;;;;;;;;;;-6.43;97.25;98761.91;5013487;28;19933;-66
2022/02/05 02:40:37;;;;;;;;;;;;;;;-6.45;97.41;98761.13;5013115;28;20376;-62
2022/02/05 02:43:13;;;;;;;;;;;;;;;-6.42;97.61;98763.59;5013128;28;19929;-64
2022/02/05 02:45:41;;;;;;;;;;;;;;;-6.42;97.39;98751.78;5013247;28;20368;-66
2022/02/05 02:48:08;;;;;;;;;;;;;;;-6.43;97.64;98752.63;5013201;28;19925;-65
2022/02/05 02:56:25;;;;;;;;;;;;;;;-6.43;97.88;98750.09;5013152;28;20384;-63
2022/02/05 02:56:32;;;;;;;;;;;;;;;-6.42;97.52;98761.06;5013124;28;20004;-62
2022/02/05 02:59:04;;;;;;;;;;;;;;;-6.40;97.59;98746.69;5013211;28;19926;-63
2022/02/05 03:01:34;;;;;;;;;;;;;;;-6.39;97.21;98745.84;5013150;28;19929;-63
2022/02/05 03:04:01;;;;;;;;;;;;;;;-6.36;97.04;98733.94;5013225;28;20012;-63
2022/02/05 03:06:28;;;;;;;;;;;;;;;-6.36;97.01;98741.53;5012984;28;19925;-62
2022/02/05 03:08:55;;;;;;;;;;;;;;;-6.33;96.99;98737.28;5013130;28;19929;-63
2022/02/05 03:11:23;;;;;;;;;;;;;;;-6.35;96.51;98745.72;5013006;28;19925;-63
2022/02/05 03:13:50;;;;;;;;;;;;;;;-6.32;96.51;98731.34;5012802;28;19936;-63
2022/02/05 03:16:22;;;;;;;;;;;;;;;-6.32;96.25;98737.25;5012810;28;19932;-64
2022/02/05 03:19:01;;;;;;;;;;;;;;;-6.34;96.40;98728.88;5012795;28;20382;-63
2022/02/05 03:21:27;;;;;;;;;;;;;;;-6.35;96.39;98740.66;5013070;28;19930;-63
2022/02/05 03:23:54;;;;;;;;;;;;;;;-6.33;96.42;98732.22;5012838;28;20376;-64
2022/02/05 03:26:22;;;;;;;;;;;;;;;-6.32;96.18;98733.88;5013399;28;20495;-63
2022/02/05 03:28:48;;;;;;;;;;;;;;;-6.34;96.70;98731.41;5012970;28;19932;-63
2022/02/05 03:31:15;;;;;;;;;;;;;;;-6.36;97.00;98733.94;5012788;28;19929;-64
2022/02/05 03:33:42;;;;;;;;;;;;;;;-6.37;97.16;98723.84;5012685;28;19932;-63
2022/02/05 03:36:08;;;;;;;;;;;;;;;-6.38;97.38;98732.31;5012631;28;20411;-62
2022/02/05 03:38:35;;;;;;;;;;;;;;;-6.38;97.40;98733.13;5012805;28;19937;-64
2022/02/05 03:41:01;;;;;;;;;;;;;;;-6.37;96.74;98731.44;5012658;28;19925;-62
2022/02/05 03:43:29;;;;;;;;;;;;;;;-6.36;97.47;98730.59;5012719;28;19933;-65
2022/02/05 03:45:56;;;;;;;;;;;;;;;-6.38;96.87;98729.78;5012717;28;19933;-66
2022/02/05 03:48:22;;;;;;;;;;;;;;;-6.38;96.82;98727.25;5012852;28;19925;-66
2022/02/05 03:50:49;;;;;;;;;;;;;;;-6.35;97.31;98737.31;5012735;28;19925;-63
2022/02/05 03:53:17;;;;;;;;;;;;;;;-6.37;96.92;98718.78;5012685;28;19925;-65
2022/02/05 03:55:45;;;;;;;;;;;;;;;-6.33;96.60;98730.53;5013681;28;20403;-64
2022/02/05 03:58:12;;;;;;;;;;;;;;;-6.36;96.68;98726.34;5016227;28;19975;-63
2022/02/05 04:00:40;;;;;;;;;;;;;;;-6.40;96.40;98717.13;5016410;28;20009;-63
2022/02/05 04:03:07;;;;;;;;;;;;;;;-6.35;96.65;98720.41;5016035;28;20372;-66
2022/02/05 04:05:33;;;;;;;;;;;;;;;-6.37;96.42;98719.63;5016142;28;20020;-66
2022/02/05 04:08:01;;;;;;;;;;;;;;;-6.36;96.67;98723.00;5016187;28;19933;-62
2022/02/05 04:10:30;;;;;;;;;;;;;;;-6.33;96.10;98711.97;5016429;28;19930;-61
2022/02/05 04:15:58;;;;;;;;;;;;;;;-6.33;96.55;98717.03;5015928;28;19936;-63
2022/02/05 04:18:25;;;;;;;;;;;;;;;-6.32;96.15;98709.41;5015593;28;19948;-64
2022/02/05 04:20:52;;;;;;;;;;;;;;;-6.32;96.62;98714.47;5016123;28;19932;-63
2022/02/05 04:23:19;;;;;;;;;;;;;;;-6.35;96.31;98705.22;5015846;28;19925;-63
2022/02/05 04:25:47;;;;;;;;;;;;;;;-6.34;96.16;98708.63;5016274;28;19926;-61
2022/02/05 04:28:14;;;;;;;;;;;;;;;-6.33;95.93;98712.81;5015879;28;19955;-65
2022/02/05 04:30:40;;;;;;;;;;;;;;;-6.33;96.37;98705.22;5015636;28;20372;-63
2022/02/05 04:33:08;;;;;;;;;;;;;;;-6.33;96.67;98709.44;5015657;28;19925;-62
2022/02/05 04:35:35;;;;;;;;;;;;;;;-6.35;96.36;98699.34;5015580;28;19937;-62
2022/02/05 04:38:04;;;;;;;;;;;;;;;-6.36;96.44;98708.63;5015850;28;19933;-63
2022/02/05 04:40:35;;;;;;;;;;;;;;;-6.31;95.83;98712.78;5015588;28;20275;-64
2022/02/05 04:43:15;;;;;;;;;;;;;;;-6.32;96.22;98706.88;5015640;28;19987;-64
2022/02/05 04:46:11;;;;;;;;;;;;;;;-6.34;96.49;98701.03;5015828;28;19933;-61
2022/02/05 04:54:33;;;;;;;;;;;;;;;-6.38;96.38;98710.34;5015473;28;20295;-62
2022/02/05 04:57:08;;;;;;;;;;;;;;;-6.40;96.45;98699.44;5015160;28;19926;-66
2022/02/05 05:02:36;;;;;;;;;;;;;;;-6.37;96.79;98701.06;5011618;28;19959;-66
2022/02/05 05:05:19;;;;;;;;;;;;;;;-6.40;96.67;98701.97;5015090;28;19925;-64
2022/02/05 05:08:07;;;;;;;;;;;;;;;-6.40;97.06;98711.25;5014575;28;19936;-65
2022/02/05 05:10:43;;;;;;;;;;;;;;;-6.41;96.93;98702.00;5014982;28;19940;-66
2022/02/05 05:13:15;;;;;;;;;;;;;;;-6.40;96.54;98691.00;5014864;28;20443;-62
2022/02/05 05:21:07;;;;;;;;;;;;;;;-6.41;96.12;98700.31;5014900;28;20445;-69
2022/02/05 05:23:34;;;;;;;;;;;;;;;-6.41;96.32;98702.84;5015031;28;19925;-69
2022/02/05 05:26:00;;;;;;;;;;;;;;;-6.40;96.42;98691.84;5014900;28;19926;-62
2022/02/05 05:28:27;;;;;;;;;;;;;;;-6.41;96.41;98700.31;5014575;28;20138;-67
2022/02/05 05:30:53;;;;;;;;;;;;;;;-6.43;96.10;98693.59;5014672;28;19925;-61
2022/02/05 05:33:20;;;;;;;;;;;;;;;-6.43;96.46;98698.66;5014416;28;19937;-68
2022/02/05 05:35:47;;;;;;;;;;;;;;;-6.42;96.30;98685.13;5014819;28;19932;-67
2022/02/05 05:38:15;;;;;;;;;;;;;;;-6.41;96.32;98699.47;5014293;28;19926;-68
2022/02/05 05:40:42;;;;;;;;;;;;;;;-6.42;96.38;98701.19;5014479;28;19925;-68
2022/02/05 05:43:19;;;;;;;;;;;;;;;-6.42;95.90;98700.31;5014493;28;19948;-62
2022/02/05 05:46:14;;;;;;;;;;;;;;;-6.41;96.06;98692.72;5014214;28;19932;-67
2022/02/05 05:48:55;;;;;;;;;;;;;;;-6.38;95.85;98686.75;5014198;28;20380;-67
2022/02/05 05:51:22;;;;;;;;;;;;;;;-6.43;95.87;98699.50;5014226;28;20478;-68
2022/02/05 05:53:50;;;;;;;;;;;;;;;-6.38;95.95;98699.41;5014120;28;19926;-66
2022/02/05 05:56:17;;;;;;;;;;;;;;;-6.39;95.62;98693.53;5014001;28;20280;-68
2022/02/05 05:58:44;;;;;;;;;;;;;;;-6.39;95.71;98696.06;5014122;28;19933;-61
2022/02/05 06:01:10;;;;;;;;;;;;;;;-6.40;95.91;98696.06;5014142;28;19929;-62
2022/02/05 06:03:38;;;;;;;;;;;;;;;-6.39;96.18;98703.66;5014064;28;19926;-67
2022/02/05 06:06:05;;;;;;;;;;;;;;;-6.37;95.52;98711.19;5013953;28;19948;-68
2022/02/05 06:08:31;;;;;;;;;;;;;;;-6.36;95.66;98710.34;5014218;28;19925;-67
2022/02/05 06:10:59;;;;;;;;;;;;;;;-6.36;96.20;98700.22;5013905;28;19925;-68
2022/02/05 06:13:26;;;;;;;;;;;;;;;-6.38;96.05;98707.81;5014019;28;19936;-67
2022/02/05 06:15:54;;;;;;;;;;;;;;;-6.39;95.81;98703.66;5013800;28;19925;-62
2022/02/05 06:18:21;;;;;;;;;;;;;;;-6.38;96.13;98707.00;5013009;28;20015;-67
2022/02/05 06:20:47;;;;;;;;;;;;;;;-6.38;95.98;98705.31;5013612;28;19926;-68
2022/02/05 06:23:14;;;;;;;;;;;;;;;-6.38;96.02;98700.22;5013507;28;19926;-65
2022/02/05 06:25:41;;;;;;;;;;;;;;;-6.37;96.38;98696.88;5014093;28;19909;-67
2022/02/05 06:28:10;;;;;;;;;;;;;;;-6.40;96.05;98696.06;5013771;28;19973;-67
2022/02/05 06:30:37;;;;;;;;;;;;;;;-6.38;95.90;98702.78;5013711;28;19925;-62
2022/02/05 06:33:03;;;;;;;;;;;;;;;-6.38;95.96;98697.72;5013594;28;19980;-67
2022/02/05 06:35:30;;;;;;;;;;;;;;;-6.37;96.23;98698.53;5013229;28;19932;-63
2022/02/05 06:37:57;;;;;;;;;;;;;;;-6.38;96.05;98697.72;5013253;28;19933;-64
2022/02/05 06:40:23;;;;;;;;;;;;;;;-6.39;95.90;98702.81;5013218;28;19932;-62
2022/02/05 06:42:50;;;;;;;;;;;;;;;-6.39;96.31;98703.66;5013239;28;19932;-64
2022/02/05 06:45:18;;;;;;;;;;;;;;;-6.38;96.36;98692.66;5013212;28;19925;-66
2022/02/05 06:47:44;;;;;;;;;;;;;;;-6.38;95.58;98695.19;5013200;28;19926;-64
2022/02/05 06:50:11;;;;;;;;;;;;;;;-6.35;96.17;98702.69;5013274;28;19925;-61
2022/02/05 06:52:38;;;;;;;;;;;;;;;-6.37;95.97;98701.91;5013142;28;20040;-65
2022/02/05 06:55:05;;;;;;;;;;;;;;;-6.36;96.55;98707.81;5013344;28;19932;-65
2022/02/05 06:57:31;;;;;;;;;;;;;;;-6.37;96.13;98701.91;5013134;28;19925;-62
2022/02/05 06:59:58;;;;;;;;;;;;;;;-6.37;96.15;98709.50;5013159;28;19932;-61
2022/02/05 07:02:26;;;;;;;;;;;;;;;-6.35;96.41;98707.75;5013376;28;19926;-60
2022/02/05 07:04:53;;;;;;;;;;;;;;;-6.37;96.07;98711.19;5012976;28;19933;-61
2022/02/05 07:07:19;;;;;;;;;;;;;;;-6.32;96.54;98701.81;5012855;28;19926;-67
2022/02/05 07:09:46;;;;;;;;;;;;;;;-6.35;96.17;98702.69;5013210;28;19926;-68
2022/02/05 07:12:12;;;;;;;;;;;;;;;-6.33;96.07;98696.78;5013269;28;19929;-67
2022/02/05 07:14:45;;;;;;;;;;;;;;;-6.39;96.27;98692.69;5013063;28;19932;-66
2022/02/05 07:17:18;;;;;;;;;;;;;;;-6.32;96.24;98698.44;5012825;28;19933;-62
2022/02/05 07:19:59;;;;;;;;;;;;;;;-6.35;95.97;98692.59;5012621;28;19925;-66
2022/02/05 07:22:31;;;;;;;;;;;;;;;-6.32;96.20;98691.69;5013052;28;19933;-67
2022/02/05 07:29:12;;;;;;;;;;;;;;;-6.32;95.93;98685.78;5012735;28;19926;-68
2022/02/05 07:30:31;;;;;;;;;;;;;;;-6.30;95.86;98691.66;5015555;28;19932;-61
2022/02/05 07:32:58;;;;;;;;;;;;;;;-6.30;95.44;98692.50;5016828;28;19932;-67
2022/02/05 07:35:27;;;;;;;;;;;;;;;-6.29;95.75;98680.66;5016864;28;19925;-68
2022/02/05 07:37:56;;;;;;;;;;;;;;;-6.29;95.91;98688.25;5016791;28;19965;-64
2022/02/05 07:40:23;;;;;;;;;;;;;;;-6.30;95.89;98677.31;5016861;28;19925;-62
2022/02/05 07:42:49;;;;;;;;;;;;;;;-6.31;96.10;98688.31;5016295;28;19926;-65
2022/02/05 07:45:16;;;;;;;;;;;;;;;-6.33;96.07;98684.13;5016420;28;19929;-62
2022/02/05 07:47:43;;;;;;;;;;;;;;;-6.30;96.53;98682.38;5016729;28;19932;-64
2022/02/05 07:50:10;;;;;;;;;;;;;;;-6.30;96.46;98686.59;5016635;28;19932;-67
2022/02/05 07:52:37;;;;;;;;;;;;;;;-6.35;96.74;98674.03;5016285;28;19936;-68
2022/02/05 07:55:05;;;;;;;;;;;;;;;-6.36;97.44;98685.88;5016194;28;19933;-68
2022/02/05 07:57:31;;;;;;;;;;;;;;;-6.36;97.14;98688.41;5016442;28;19925;-69
2022/02/05 07:59:58;;;;;;;;;;;;;;;-6.38;97.54;98685.06;5016130;28;19932;-68
2022/02/05 08:02:24;;;;;;;;;;;;;;;-6.35;98.14;98684.16;5016254;28;19925;-68
2022/02/05 08:04:51;;;;;;;;;;;;;;;-6.32;97.87;98675.66;5016135;28;19925;-63
2022/02/05 08:07:18;;;;;;;;;;;;;;;-6.32;97.26;98663.84;5016070;28;20304;-62
2022/02/05 08:09:54;;;;;;;;;;;;;;;-6.36;97.71;98675.75;5016083;28;20296;-62
2022/02/05 08:12:21;;;;;;;;;;;;;;;-6.32;97.61;98680.72;5016243;28;19926;-64
2022/02/05 08:14:51;;;;;;;;;;;;;;;-6.29;97.88;98675.59;5016175;28;19976;-62
2022/02/05 08:17:21;;;;;;;;;;;;;;;-6.27;97.37;98678.94;5016044;28;19937;-64
2022/02/05 08:19:48;;;;;;;;;;;;;;;-6.28;97.60;98673.06;5016020;28;19926;-68
2022/02/05 08:22:14;;;;;;;;;;;;;;;-6.25;97.02;98687.34;5015807;28;19930;-69
2022/02/05 08:24:41;;;;;;;;;;;;;;;-6.21;97.10;98676.31;5015605;28;19929;-68
2022/02/05 08:27:09;;;;;;;;;;;;;;;-6.18;96.79;98674.53;5016077;28;19988;-63
2022/02/05 08:29:38;;;;;;;;;;;;;;;-6.16;96.99;98670.28;5015831;28;19925;-62
2022/02/05 08:32:05;;;;;;;;;;;;;;;-6.13;96.60;98671.91;5015868;28;19932;-69
2022/02/05 08:34:32;;;;;;;;;;;;;;;-6.14;96.98;98667.69;5015714;28;19925;-66
2022/02/05 08:36:59;;;;;;;;;;;;;;;-6.10;97.11;98663.44;5015465;28;19933;-62
2022/02/05 08:39:25;;;;;;;;;;;;;;;-6.10;96.85;98668.50;5015623;28;19925;-62
2022/02/05 08:41:52;;;;;;;;;;;;;;;-6.09;96.54;98670.97;5014994;28;19933;-68
2022/02/05 08:44:20;;;;;;;;;;;;;;;-6.10;96.79;98664.25;5015546;28;19925;-68
2022/02/05 08:46:47;;;;;;;;;;;;;;;-6.13;96.54;98666.84;5015386;28;20371;-70
2022/02/05 08:49:13;;;;;;;;;;;;;;;-6.11;96.89;98667.66;5015314;28;19929;-62
2022/02/05 08:51:40;;;;;;;;;;;;;;;-6.08;96.26;98664.22;5015534;28;19936;-61
2022/02/05 08:54:06;;;;;;;;;;;;;;;-6.06;96.06;98660.81;5015301;28;20380;-69
2022/02/05 08:56:33;;;;;;;;;;;;;;;-6.03;96.34;98670.03;5015316;28;19925;-69
2022/02/05 08:58:59;;;;;;;;;;;;;;;-6.00;96.38;98660.66;5015049;28;19929;-62
2022/02/05 09:01:31;;;;;;;;;;;;;;;-6.01;95.98;98658.16;5015030;28;20277;-66
2022/02/05 09:04:05;;;;;;;;;;;;;;;-6.00;95.76;98672.50;5014995;28;19926;-62
2022/02/05 09:06:37;;;;;;;;;;;;;;;-6.01;96.25;98664.06;5015029;28;19976;-62
2022/02/05 09:09:11;;;;;;;;;;;;;;;-5.97;96.16;98665.66;5015016;28;20284;-67
2022/02/05 09:11:42;;;;;;;;;;;;;;;-5.96;95.38;98667.34;5014931;28;20410;-63
2022/02/05 09:14:28;;;;;;;;;;;;;;;-5.97;95.13;98663.13;5014795;28;20024;-68
2022/02/05 09:16:56;;;;;;;;;;;;;;;-5.92;95.44;98665.53;5014662;28;19925;-68
2022/02/05 09:19:22;;;;;;;;;;;;;;;-5.92;95.32;98671.41;5014694;28;19925;-64
2022/02/05 09:21:49;;;;;;;;;;;;;;;-5.87;95.13;98670.50;5014856;28;19933;-64
2022/02/05 09:24:16;;;;;;;;;;;;;;;-5.85;95.16;98653.56;5014657;28;19940;-62
2022/02/05 09:26:45;;;;;;;;;;;;;;;-5.84;94.71;98671.25;5014682;28;19936;-66
2022/02/05 09:29:14;;;;;;;;;;;;;;;-5.84;95.03;98666.19;5014584;28;19949;-62
2022/02/05 09:31:41;;;;;;;;;;;;;;;-5.87;94.83;98665.44;5014477;28;19932;-63
2022/02/05 09:34:09;;;;;;;;;;;;;;;-5.83;95.09;98667.00;5014424;28;19932;-63
2022/02/05 09:36:37;;;;;;;;;;;;;;;-5.83;94.58;98667.00;5014479;28;19933;-69
2022/02/05 09:39:04;;;;;;;;;;;;;;;-5.79;94.59;98668.63;5014364;28;19925;-64
2022/02/05 09:41:30;;;;;;;;;;;;;;;-5.78;94.81;98666.06;5014283;28;19925;-63
2022/02/05 09:43:57;;;;;;;;;;;;;;;-5.75;94.39;98668.53;5014312;28;19925;-63
2022/02/05 09:46:23;;;;;;;;;;;;;;;-5.73;95.36;98671.00;5014115;28;19925;-62
2022/02/05 09:48:51;;;;;;;;;;;;;;;-5.75;94.45;98676.13;5014181;28;20388;-69
2022/02/05 09:51:20;;;;;;;;;;;;;;;-5.74;94.71;98670.19;5014088;28;19929;-69
2022/02/05 09:53:48;;;;;;;;;;;;;;;-5.71;94.63;98661.69;5012904;28;19926;-68
2022/02/05 09:56:15;;;;;;;;;;;;;;;-5.69;94.96;98660.78;5013945;28;19937;-62
2022/02/05 09:58:41;;;;;;;;;;;;;;;-5.67;94.42;98658.22;5014199;28;20392;-62
2022/02/05 10:01:12;;;;;;;;;;;;;;;-5.66;94.48;98659.06;5014277;28;19933;-62
2022/02/05 10:03:39;;;;;;;;;;;;;;;-5.65;94.41;98661.56;5013969;28;19926;-63
2022/02/05 10:06:08;;;;;;;;;;;;;;;-5.66;94.09;98657.34;5013797;28;20335;-68
2022/02/05 10:08:37;;;;;;;;;;;;;;;-5.62;94.72;98656.41;5013769;28;19925;-62
2022/02/05 10:11:04;;;;;;;;;;;;;;;-5.61;94.41;98650.47;5014120;28;19936;-69
2022/02/05 10:13:31;;;;;;;;;;;;;;;-5.62;94.43;98656.41;5013973;28;19929;-64
2022/02/05 10:15:58;;;;;;;;;;;;;;;-5.58;94.18;98650.41;5013728;28;20265;-62
2022/02/05 10:18:25;;;;;;;;;;;;;;;-5.55;94.44;98649.50;5013955;28;19948;-62
2022/02/05 10:20:52;;;;;;;;;;;;;;;-5.52;94.10;98651.97;5013652;28;20319;-63
2022/02/05 10:23:19;;;;;;;;;;;;;;;-5.48;93.47;98643.41;5013853;28;19933;-64
2022/02/05 10:25:48;;;;;;;;;;;;;;;-5.50;93.31;98648.53;5014073;28;19929;-68
2022/02/05 10:28:15;;;;;;;;;;;;;;;-5.45;94.01;98652.66;5013716;28;19933;-63
2022/02/05 10:30:44;;;;;;;;;;;;;;;-5.43;93.27;98645.84;5013518;28;19933;-63
2022/02/05 10:33:15;;;;;;;;;;;;;;;-5.42;93.43;98648.38;5013544;28;20327;-68
2022/02/05 10:35:43;;;;;;;;;;;;;;;-5.36;92.90;98647.38;5013424;28;19929;-62
2022/02/05 10:38:31;;;;;;;;;;;;;;;-5.37;93.14;98655.84;5013478;28;19926;-62
2022/02/05 10:43:44;;;;;;;;;;;;;;;-5.28;92.67;98658.16;5013167;28;19925;-62
2022/02/05 10:46:11;;;;;;;;;;;;;;;-5.26;92.81;98657.25;5013544;28;20288;-61
2022/02/05 10:48:42;;;;;;;;;;;;;;;-5.29;92.47;98654.78;5013395;28;20307;-62
2022/02/05 10:51:09;;;;;;;;;;;;;;;-5.31;92.94;98651.47;5013406;28;19965;-63
2022/02/05 10:53:40;;;;;;;;;;;;;;;-5.31;93.11;98655.69;5013243;28;19925;-62
2022/02/05 10:56:13;;;;;;;;;;;;;;;-5.29;93.88;98654.78;5013130;28;19937;-62
2022/02/05 10:59:08;;;;;;;;;;;;;;;-5.31;92.95;98650.63;5013261;28;19937;-61
2022/02/05 11:07:03;;;;;;;;;;;;;;;-5.32;93.38;98662.47;5013205;28;19987;-63
2022/02/05 11:09:30;;;;;;;;;;;;;;;-5.27;93.80;98662.34;5013103;28;19932;-63
2022/02/05 11:20:32;;;;;;;;;;;;;;;-5.28;94.75;98663.22;4971481;28;19934;-62
2022/02/05 11:23:00;;;;;;;;;;;;;;;-5.26;94.71;98659.78;4996770;28;19929;-63
2022/02/05 11:25:30;;;;;;;;;;;;;;;-5.23;94.69;98653.81;5012695;28;19925;-69
2022/02/05 11:27:58;;;;;;;;;;;;;;;-5.27;94.95;98658.13;5013178;28;19933;-62
2022/02/05 11:30:32;;;;;;;;;;;;;;;-5.23;95.32;98678.34;5012661;28;19926;-63
2022/02/05 11:33:03;;;;;;;;;;;;;;;-5.15;95.14;98674.72;5012571;28;19926;-62
2022/02/05 11:35:33;;;;;;;;;;;;;;;-5.16;94.68;98662.94;5012741;28;19926;-65
2022/02/05 11:38:00;;;;;;;;;;;;;;;-5.16;94.66;98659.53;5012639;28;20252;-62
2022/02/05 11:40:46;;;;;;;;;;;;;;;-5.13;94.98;98664.56;5012868;28;19932;-64
2022/02/05 11:43:16;;;;;;;;;;;;;;;-5.10;95.05;98660.22;5012763;28;19933;-62
2022/02/05 11:45:43;;;;;;;;;;;;;;;-5.11;94.70;98666.19;5012601;28;19933;-62
2022/02/05 11:48:36;;;;;;;;;;;;;;;-5.05;94.97;98667.72;5012670;28;20291;-63
2022/02/05 11:51:16;;;;;;;;;;;;;;;-5.10;94.95;98667.84;4977208;28;20399;-63
2022/02/05 11:54:05;;;;;;;;;;;;;;;-5.12;95.12;98667.03;5012257;28;19926;-68
2022/02/05 11:56:47;;;;;;;;;;;;;;;-5.17;95.09;98673.94;5012337;28;19933;-63
2022/02/05 11:59:16;;;;;;;;;;;;;;;-5.08;94.92;98672.88;5012292;28;19933;-65
2022/02/05 12:01:43;;;;;;;;;;;;;;;-5.04;94.91;98665.13;5012331;28;19934;-63
2022/02/05 12:04:11;;;;;;;;;;;;;;;-5.03;94.56;98673.59;5012309;28;20378;-67
2022/02/05 12:06:48;;;;;;;;;;;;;;;-5.00;94.26;98665.09;5012213;28;20300;-62
2022/02/05 12:09:44;;;;;;;;;;;;;;;-5.05;94.23;98673.63;5012173;28;20024;-64
2022/02/05 12:12:36;;;;;;;;;;;;;;;-5.10;94.24;98669.56;4951845;29;19926;-63
2022/02/05 12:15:24;;;;;;;;;;;;;;;-5.07;94.24;98667.75;5008207;28;19926;-62
2022/02/05 12:18:06;;;;;;;;;;;;;;;-5.08;94.60;98668.66;5015314;28;19932;-62
2022/02/05 12:20:48;;;;;;;;;;;;;;;-5.08;93.92;98670.34;5015771;28;19933;-62
2022/02/05 12:23:28;;;;;;;;;;;;;;;-5.08;93.92;98668.66;5015753;28;19933;-63
2022/02/05 12:26:17;;;;;;;;;;;;;;;-5.06;93.53;98659.31;5016107;28;19965;-65
2022/02/05 12:28:44;;;;;;;;;;;;;;;-5.09;93.68;98669.50;5015976;28;19925;-63
2022/02/05 12:31:28;;;;;;;;;;;;;;;-5.09;93.79;98671.19;5015701;28;19933;-62
2022/02/05 12:33:58;;;;;;;;;;;;;;;-5.10;93.54;98672.91;5015504;28;20016;-62
2022/02/05 12:36:28;;;;;;;;;;;;;;;-5.07;93.09;98666.94;5015411;28;19926;-62
2022/02/05 12:38:55;;;;;;;;;;;;;;;-5.11;93.51;98665.34;5015683;28;20342;-63
2022/02/05 12:41:22;;;;;;;;;;;;;;;-5.10;93.23;98655.16;5015438;28;19925;-62
2022/02/05 12:43:49;;;;;;;;;;;;;;;-5.07;93.63;98659.31;5015626;28;19932;-62
2022/02/05 12:46:17;;;;;;;;;;;;;;;-5.09;93.24;98661.06;5015403;28;19925;-63
2022/02/05 12:48:46;;;;;;;;;;;;;;;-5.09;92.96;98664.41;5015375;28;19925;-62
2022/02/05 12:51:14;;;;;;;;;;;;;;;-5.14;93.32;98666.25;5015522;28;19953;-62
2022/02/05 12:53:42;;;;;;;;;;;;;;;-5.08;92.79;98667.81;5015399;28;19925;-63
2022/02/05 12:56:13;;;;;;;;;;;;;;;-5.04;93.00;98669.38;5015274;28;19927;-62
2022/02/05 12:59:01;;;;;;;;;;;;;;;-5.04;92.67;98685.44;5015248;28;19929;-62
2022/02/05 13:01:27;;;;;;;;;;;;;;;-5.02;92.91;98677.78;5014845;28;19925;-60
2022/02/05 13:04:08;;;;;;;;;;;;;;;-5.01;92.28;98674.38;5015055;28;20265;-60
2022/02/05 13:06:36;;;;;;;;;;;;;;;-5.00;92.19;98665.09;5014912;28;19925;-63
2022/02/05 13:09:03;;;;;;;;;;;;;;;-5.00;92.46;98668.44;5015159;28;19933;-63
2022/02/05 13:11:31;;;;;;;;;;;;;;;-5.02;92.33;98667.66;5014980;28;19925;-62
2022/02/05 13:14:00;;;;;;;;;;;;;;;-5.02;92.26;98670.19;5014970;28;20024;-61
2022/02/05 13:16:36;;;;;;;;;;;;;;;-5.00;92.62;98671.00;5015053;28;19964;-61
2022/02/05 13:19:19;;;;;;;;;;;;;;;-5.03;91.98;98674.44;5014784;28;20384;-61
2022/02/05 13:24:59;;;;;;;;;;;;;;;-5.05;92.55;98663.50;5014682;28;19933;-68
2022/02/05 13:27:43;;;;;;;;;;;;;;;-5.03;92.33;98659.22;5051736;22;19936;-66
2022/02/05 13:35:53;;;;;;;;;;;;;;;-5.03;92.71;98669.38;5054251;28;19931;-66
2022/02/05 13:38:21;;;;;;;;;;;;;;;-5.00;92.54;98665.91;5034122;28;20387;-67
2022/02/05 13:40:50;;;;;;;;;;;;;;;-5.01;92.58;98668.47;5034275;28;19929;-67
2022/02/05 13:43:24;;;;;;;;;;;;;;;-5.04;92.93;98682.91;5034139;28;19932;-67
2022/02/05 13:45:53;;;;;;;;;;;;;;;-5.04;93.20;98680.34;5034144;28;19933;-65
2022/02/05 13:48:24;;;;;;;;;;;;;;;-5.03;93.03;98682.03;5034228;28;19925;-67
2022/02/05 13:50:50;;;;;;;;;;;;;;;-5.00;91.78;98680.31;5034162;28;19925;-67
2022/02/05 13:53:17;;;;;;;;;;;;;;;-5.02;92.95;98687.94;5033957;28;19925;-66
2022/02/05 13:55:45;;;;;;;;;;;;;;;-5.00;92.67;98682.84;5033780;28;20387;-68
2022/02/05 13:58:13;;;;;;;;;;;;;;;-5.04;92.72;98685.44;5033831;28;19925;-67
2022/02/05 14:00:44;;;;;;;;;;;;;;;-5.06;93.37;98692.28;5033968;28;19925;-68
2022/02/05 14:03:11;;;;;;;;;;;;;;;-5.04;93.02;98687.97;5033772;28;19925;-68
2022/02/05 14:05:43;;;;;;;;;;;;;;;-5.03;92.16;98694.72;5033682;28;20031;-68
2022/02/05 14:08:09;;;;;;;;;;;;;;;-5.06;92.37;98697.34;5033659;28;19925;-67
2022/02/05 14:10:39;;;;;;;;;;;;;;;-5.04;92.18;98693.03;5033791;28;19932;-69
2022/02/05 14:13:17;;;;;;;;;;;;;;;-5.01;92.52;98697.19;5033744;28;19971;-68
2022/02/05 14:15:49;;;;;;;;;;;;;;;-5.03;92.29;98704.88;5033772;28;19929;-68
2022/02/05 14:18:16;;;;;;;;;;;;;;;-5.04;92.11;98703.19;5033412;28;20359;-68
2022/02/05 14:20:49;;;;;;;;;;;;;;;-5.04;92.31;98705.72;5033443;28;19947;-67
2022/02/05 14:23:18;;;;;;;;;;;;;;;-5.03;92.37;98704.03;5033606;28;19926;-71
2022/02/05 14:25:53;;;;;;;;;;;;;;;-5.04;92.08;98689.69;5033497;28;19925;-68
2022/02/05 14:28:32;;;;;;;;;;;;;;;-5.04;92.25;98694.75;5033168;28;19928;-68
2022/02/05 14:31:09;;;;;;;;;;;;;;;-5.03;92.30;98696.44;5033380;28;19925;-67
2022/02/05 14:33:48;;;;;;;;;;;;;;;-5.05;92.07;98709.13;5033424;28;19926;-68
2022/02/05 14:36:35;;;;;;;;;;;;;;;-5.07;92.08;98697.38;5033206;28;19925;-68
2022/02/05 14:41:45;;;;;;;;;;;;;;;-5.05;92.04;98693.91;5033141;28;19932;-68
2022/02/05 14:44:14;;;;;;;;;;;;;;;-5.09;92.37;98697.38;5033148;28;19925;-68
2022/02/05 14:46:41;;;;;;;;;;;;;;;-5.10;92.42;98689.84;5033097;28;19925;-68
2022/02/05 14:49:07;;;;;;;;;;;;;;;-5.10;92.75;98705.88;5033223;28;19975;-68